sensor_id;sensor_type;location;lat;lon;timestamp;P1;durP1;ratioP1;P2;durP2;ratioP2
73550;SDS011;61816;53.582;10.096;2023-05-10T00:01:04;8.90;;;3.80;;
73550;SDS011;61816;53.582;10.096;2023-05-10T00:03:30;11.05;;;3.28;;
73550;SDS011;61816;53.582;10.096;2023-05-10T00:05:55;5.85;;;3.58;;
73550;SDS011;61816;53.582;10.096;2023-05-10T00:08:21;8.52;;;4.30;;
73550;SDS011;61816;53.582;10.096;2023-05-10T00:10:46;6.70;;;3.78;;
73550;SDS011;61816;53.582;10.096;2023-05-10T00:13:12;6.57;;;3.63;;
73550;SDS011;61816;53.582;10.096;2023-05-10T00:15:37;11.55;;;4.10;;
73550;SDS011;61816;53.582;10.096;2023-05-10T00:18:03;10.85;;;3.97;;
73550;SDS011;61816;53.582;10.096;2023-05-10T00:20:28;8.77;;;4.13;;
73550;SDS011;61816;53.582;10.096;2023-05-10T00:22:53;7.70;;;3.72;;
73550;SDS011;61816;53.582;10.096;2023-05-10T00:25:19;10.80;;;3.55;;
73550;SDS011;61816;53.582;10.096;2023-05-10T00:27:46;7.97;;;4.00;;
73550;SDS011;61816;53.582;10.096;2023-05-10T00:30:12;6.88;;;3.72;;
73550;SDS011;61816;53.582;10.096;2023-05-10T00:32:37;6.18;;;3.83;;
73550;SDS011;61816;53.582;10.096;2023-05-10T00:35:03;7.88;;;3.60;;
73550;SDS011;61816;53.582;10.096;2023-05-10T00:37:28;22.50;;;4.03;;
73550;SDS011;61816;53.582;10.096;2023-05-10T00:39:53;10.13;;;3.50;;
73550;SDS011;61816;53.582;10.096;2023-05-10T00:42:19;11.25;;;4.18;;
73550;SDS011;61816;53.582;10.096;2023-05-10T00:44:44;9.60;;;3.92;;
73550;SDS011;61816;53.582;10.096;2023-05-10T00:47:09;5.07;;;3.50;;
73550;SDS011;61816;53.582;10.096;2023-05-10T00:49:35;6.32;;;3.65;;
73550;SDS011;61816;53.582;10.096;2023-05-10T00:52:01;10.38;;;3.92;;
73550;SDS011;61816;53.582;10.096;2023-05-10T00:54:28;10.32;;;3.90;;
73550;SDS011;61816;53.582;10.096;2023-05-10T00:56:53;11.82;;;3.95;;
73550;SDS011;61816;53.582;10.096;2023-05-10T00:59:18;12.77;;;4.05;;
73550;SDS011;61816;53.582;10.096;2023-05-10T01:01:45;6.95;;;4.20;;
73550;SDS011;61816;53.582;10.096;2023-05-10T01:04:14;13.85;;;3.83;;
73550;SDS011;61816;53.582;10.096;2023-05-10T01:06:40;7.13;;;4.10;;
73550;SDS011;61816;53.582;10.096;2023-05-10T01:09:06;8.95;;;4.13;;
73550;SDS011;61816;53.582;10.096;2023-05-10T01:11:33;9.27;;;4.05;;
73550;SDS011;61816;53.582;10.096;2023-05-10T01:14:00;8.73;;;3.78;;
73550;SDS011;61816;53.582;10.096;2023-05-10T01:16:27;12.52;;;4.03;;
73550;SDS011;61816;53.582;10.096;2023-05-10T01:18:55;14.18;;;4.40;;
73550;SDS011;61816;53.582;10.096;2023-05-10T01:21:27;11.98;;;4.20;;
73550;SDS011;61816;53.582;10.096;2023-05-10T01:33:08;9.30;;;4.22;;
73550;SDS011;61816;53.582;10.096;2023-05-10T01:35:38;12.52;;;4.50;;
73550;SDS011;61816;53.582;10.096;2023-05-10T01:46:41;11.90;;;4.25;;
73550;SDS011;61816;53.582;10.096;2023-05-10T01:52:09;11.32;;;3.97;;
73550;SDS011;61816;53.582;10.096;2023-05-10T01:54:41;7.63;;;4.05;;
73550;SDS011;61816;53.582;10.096;2023-05-10T01:57:14;14.10;;;4.25;;
73550;SDS011;61816;53.582;10.096;2023-05-10T01:59:42;12.88;;;4.60;;
73550;SDS011;61816;53.582;10.096;2023-05-10T02:02:10;12.35;;;3.70;;
73550;SDS011;61816;53.582;10.096;2023-05-10T02:04:37;9.40;;;4.20;;
73550;SDS011;61816;53.582;10.096;2023-05-10T02:07:04;8.30;;;4.13;;
73550;SDS011;61816;53.582;10.096;2023-05-10T02:09:32;15.98;;;4.28;;
73550;SDS011;61816;53.582;10.096;2023-05-10T02:12:00;11.75;;;5.10;;
73550;SDS011;61816;53.582;10.096;2023-05-10T02:14:27;7.28;;;3.25;;
73550;SDS011;61816;53.582;10.096;2023-05-10T02:16:55;7.68;;;4.20;;
73550;SDS011;61816;53.582;10.096;2023-05-10T02:19:23;15.40;;;4.32;;
73550;SDS011;61816;53.582;10.096;2023-05-10T02:21:50;10.50;;;4.35;;
73550;SDS011;61816;53.582;10.096;2023-05-10T02:24:16;10.43;;;3.90;;
73550;SDS011;61816;53.582;10.096;2023-05-10T02:26:44;15.23;;;4.05;;
73550;SDS011;61816;53.582;10.096;2023-05-10T02:29:11;8.75;;;4.68;;
73550;SDS011;61816;53.582;10.096;2023-05-10T02:31:37;8.23;;;3.97;;
73550;SDS011;61816;53.582;10.096;2023-05-10T02:34:03;13.45;;;3.85;;
73550;SDS011;61816;53.582;10.096;2023-05-10T02:36:32;9.13;;;4.20;;
73550;SDS011;61816;53.582;10.096;2023-05-10T02:38:58;12.60;;;3.97;;
73550;SDS011;61816;53.582;10.096;2023-05-10T02:41:26;13.18;;;4.35;;
73550;SDS011;61816;53.582;10.096;2023-05-10T02:43:54;14.25;;;5.75;;
73550;SDS011;61816;53.582;10.096;2023-05-10T02:46:22;14.02;;;4.90;;
73550;SDS011;61816;53.582;10.096;2023-05-10T02:48:48;11.77;;;4.45;;
73550;SDS011;61816;53.582;10.096;2023-05-10T02:51:13;16.10;;;4.03;;
73550;SDS011;61816;53.582;10.096;2023-05-10T02:53:43;11.75;;;3.95;;
73550;SDS011;61816;53.582;10.096;2023-05-10T02:56:13;6.47;;;4.30;;
73550;SDS011;61816;53.582;10.096;2023-05-10T02:58:44;8.13;;;4.13;;
73550;SDS011;61816;53.582;10.096;2023-05-10T03:01:10;12.20;;;4.63;;
73550;SDS011;61816;53.582;10.096;2023-05-10T03:03:36;7.80;;;4.25;;
73550;SDS011;61816;53.582;10.096;2023-05-10T03:06:01;9.18;;;4.57;;
73550;SDS011;61816;53.582;10.096;2023-05-10T03:08:26;11.13;;;4.93;;
73550;SDS011;61816;53.582;10.096;2023-05-10T03:16:56;15.07;;;4.43;;
73550;SDS011;61816;53.582;10.096;2023-05-10T03:21:54;12.27;;;4.78;;
73550;SDS011;61816;53.582;10.096;2023-05-10T03:24:25;9.15;;;4.55;;
73550;SDS011;61816;53.582;10.096;2023-05-10T03:26:53;12.00;;;4.40;;
73550;SDS011;61816;53.582;10.096;2023-05-10T03:29:21;8.60;;;3.90;;
73550;SDS011;61816;53.582;10.096;2023-05-10T03:31:49;10.65;;;3.83;;
73550;SDS011;61816;53.582;10.096;2023-05-10T03:34:15;8.85;;;4.78;;
73550;SDS011;61816;53.582;10.096;2023-05-10T03:36:40;11.93;;;4.97;;
73550;SDS011;61816;53.582;10.096;2023-05-10T03:39:06;12.63;;;4.57;;
73550;SDS011;61816;53.582;10.096;2023-05-10T03:41:31;11.18;;;4.13;;
73550;SDS011;61816;53.582;10.096;2023-05-10T03:43:56;12.52;;;4.93;;
73550;SDS011;61816;53.582;10.096;2023-05-10T03:46:21;9.23;;;4.28;;
73550;SDS011;61816;53.582;10.096;2023-05-10T03:48:47;11.73;;;4.13;;
73550;SDS011;61816;53.582;10.096;2023-05-10T03:51:12;16.27;;;4.45;;
73550;SDS011;61816;53.582;10.096;2023-05-10T03:53:37;9.02;;;4.50;;
73550;SDS011;61816;53.582;10.096;2023-05-10T03:56:03;13.60;;;5.05;;
73550;SDS011;61816;53.582;10.096;2023-05-10T03:58:28;15.65;;;4.57;;
73550;SDS011;61816;53.582;10.096;2023-05-10T04:00:54;11.90;;;4.65;;
73550;SDS011;61816;53.582;10.096;2023-05-10T04:03:20;8.20;;;4.63;;
73550;SDS011;61816;53.582;10.096;2023-05-10T04:05:45;10.48;;;4.40;;
73550;SDS011;61816;53.582;10.096;2023-05-10T04:08:11;14.75;;;4.60;;
73550;SDS011;61816;53.582;10.096;2023-05-10T04:10:36;11.32;;;4.28;;
73550;SDS011;61816;53.582;10.096;2023-05-10T04:13:01;12.50;;;4.72;;
73550;SDS011;61816;53.582;10.096;2023-05-10T04:15:27;11.38;;;4.50;;
73550;SDS011;61816;53.582;10.096;2023-05-10T04:17:52;8.60;;;4.25;;
73550;SDS011;61816;53.582;10.096;2023-05-10T04:20:18;8.38;;;4.20;;
73550;SDS011;61816;53.582;10.096;2023-05-10T04:22:44;9.77;;;4.72;;
73550;SDS011;61816;53.582;10.096;2023-05-10T04:25:09;9.73;;;4.90;;
73550;SDS011;61816;53.582;10.096;2023-05-10T04:27:34;12.95;;;4.55;;
73550;SDS011;61816;53.582;10.096;2023-05-10T04:30:00;10.63;;;4.45;;
73550;SDS011;61816;53.582;10.096;2023-05-10T04:32:26;13.70;;;4.43;;
73550;SDS011;61816;53.582;10.096;2023-05-10T04:34:51;7.90;;;3.95;;
73550;SDS011;61816;53.582;10.096;2023-05-10T04:37:17;16.83;;;4.68;;
73550;SDS011;61816;53.582;10.096;2023-05-10T04:39:43;14.35;;;4.90;;
73550;SDS011;61816;53.582;10.096;2023-05-10T04:42:08;17.83;;;4.53;;
73550;SDS011;61816;53.582;10.096;2023-05-10T04:44:34;12.63;;;5.68;;
73550;SDS011;61816;53.582;10.096;2023-05-10T04:46:59;8.02;;;4.43;;
73550;SDS011;61816;53.582;10.096;2023-05-10T04:49:25;10.65;;;4.97;;
73550;SDS011;61816;53.582;10.096;2023-05-10T04:51:50;12.68;;;4.55;;
73550;SDS011;61816;53.582;10.096;2023-05-10T04:54:16;10.88;;;4.00;;
73550;SDS011;61816;53.582;10.096;2023-05-10T04:56:41;10.73;;;4.90;;
73550;SDS011;61816;53.582;10.096;2023-05-10T04:59:06;8.32;;;5.07;;
73550;SDS011;61816;53.582;10.096;2023-05-10T05:01:32;12.82;;;4.40;;
73550;SDS011;61816;53.582;10.096;2023-05-10T05:03:57;18.73;;;4.45;;
73550;SDS011;61816;53.582;10.096;2023-05-10T05:06:23;10.85;;;4.20;;
73550;SDS011;61816;53.582;10.096;2023-05-10T05:08:49;10.98;;;4.55;;
73550;SDS011;61816;53.582;10.096;2023-05-10T05:11:15;15.70;;;5.38;;
73550;SDS011;61816;53.582;10.096;2023-05-10T05:13:40;17.40;;;5.13;;
73550;SDS011;61816;53.582;10.096;2023-05-10T05:16:06;20.20;;;4.85;;
73550;SDS011;61816;53.582;10.096;2023-05-10T05:18:31;6.75;;;4.47;;
73550;SDS011;61816;53.582;10.096;2023-05-10T05:21:00;12.18;;;4.70;;
73550;SDS011;61816;53.582;10.096;2023-05-10T05:23:26;12.13;;;4.35;;
73550;SDS011;61816;53.582;10.096;2023-05-10T05:25:52;13.00;;;5.10;;
73550;SDS011;61816;53.582;10.096;2023-05-10T05:28:18;6.65;;;4.65;;
73550;SDS011;61816;53.582;10.096;2023-05-10T05:30:44;12.40;;;4.72;;
73550;SDS011;61816;53.582;10.096;2023-05-10T05:33:09;19.27;;;4.72;;
73550;SDS011;61816;53.582;10.096;2023-05-10T05:35:35;11.25;;;5.05;;
73550;SDS011;61816;53.582;10.096;2023-05-10T05:38:00;11.45;;;4.53;;
73550;SDS011;61816;53.582;10.096;2023-05-10T05:40:26;12.25;;;5.20;;
73550;SDS011;61816;53.582;10.096;2023-05-10T05:42:51;8.13;;;4.65;;
73550;SDS011;61816;53.582;10.096;2023-05-10T05:45:16;7.35;;;4.82;;
73550;SDS011;61816;53.582;10.096;2023-05-10T05:47:42;13.95;;;4.40;;
73550;SDS011;61816;53.582;10.096;2023-05-10T05:50:07;11.00;;;4.78;;
73550;SDS011;61816;53.582;10.096;2023-05-10T05:52:33;11.38;;;4.63;;
73550;SDS011;61816;53.582;10.096;2023-05-10T05:54:58;10.43;;;4.53;;
73550;SDS011;61816;53.582;10.096;2023-05-10T05:57:23;11.63;;;4.60;;
73550;SDS011;61816;53.582;10.096;2023-05-10T05:59:49;9.25;;;4.40;;
73550;SDS011;61816;53.582;10.096;2023-05-10T06:02:14;14.35;;;5.03;;
73550;SDS011;61816;53.582;10.096;2023-05-10T06:04:40;19.25;;;4.85;;
73550;SDS011;61816;53.582;10.096;2023-05-10T06:07:05;14.23;;;5.10;;
73550;SDS011;61816;53.582;10.096;2023-05-10T06:09:30;7.72;;;4.50;;
73550;SDS011;61816;53.582;10.096;2023-05-10T06:11:56;15.57;;;5.18;;
73550;SDS011;61816;53.582;10.096;2023-05-10T06:14:22;13.30;;;5.45;;
73550;SDS011;61816;53.582;10.096;2023-05-10T06:16:47;8.68;;;4.63;;
73550;SDS011;61816;53.582;10.096;2023-05-10T06:19:13;9.13;;;4.60;;
73550;SDS011;61816;53.582;10.096;2023-05-10T06:21:38;6.53;;;4.32;;
73550;SDS011;61816;53.582;10.096;2023-05-10T06:24:05;12.95;;;4.90;;
73550;SDS011;61816;53.582;10.096;2023-05-10T06:26:32;9.63;;;4.80;;
73550;SDS011;61816;53.582;10.096;2023-05-10T06:28:57;11.70;;;5.20;;
73550;SDS011;61816;53.582;10.096;2023-05-10T06:31:23;13.43;;;4.03;;
73550;SDS011;61816;53.582;10.096;2023-05-10T06:33:48;8.07;;;5.00;;
73550;SDS011;61816;53.582;10.096;2023-05-10T06:36:13;11.80;;;4.43;;
73550;SDS011;61816;53.582;10.096;2023-05-10T06:38:39;11.35;;;4.57;;
73550;SDS011;61816;53.582;10.096;2023-05-10T06:41:05;11.05;;;4.60;;
73550;SDS011;61816;53.582;10.096;2023-05-10T06:43:30;10.30;;;5.13;;
73550;SDS011;61816;53.582;10.096;2023-05-10T06:45:56;13.40;;;4.28;;
73550;SDS011;61816;53.582;10.096;2023-05-10T06:48:22;9.48;;;4.60;;
73550;SDS011;61816;53.582;10.096;2023-05-10T06:50:48;5.88;;;3.92;;
73550;SDS011;61816;53.582;10.096;2023-05-10T06:53:13;5.75;;;4.22;;
73550;SDS011;61816;53.582;10.096;2023-05-10T06:55:39;4.90;;;4.30;;
73550;SDS011;61816;53.582;10.096;2023-05-10T06:58:04;9.27;;;5.18;;
73550;SDS011;61816;53.582;10.096;2023-05-10T07:00:30;15.70;;;4.82;;
73550;SDS011;61816;53.582;10.096;2023-05-10T07:02:55;12.18;;;5.10;;
73550;SDS011;61816;53.582;10.096;2023-05-10T07:05:20;11.75;;;5.28;;
73550;SDS011;61816;53.582;10.096;2023-05-10T07:07:46;9.05;;;4.88;;
73550;SDS011;61816;53.582;10.096;2023-05-10T07:10:11;8.23;;;4.30;;
73550;SDS011;61816;53.582;10.096;2023-05-10T07:12:37;8.57;;;4.30;;
73550;SDS011;61816;53.582;10.096;2023-05-10T07:15:03;6.93;;;4.45;;
73550;SDS011;61816;53.582;10.096;2023-05-10T07:17:29;8.30;;;4.28;;
73550;SDS011;61816;53.582;10.096;2023-05-10T07:19:54;12.75;;;4.68;;
73550;SDS011;61816;53.582;10.096;2023-05-10T07:22:20;8.15;;;4.80;;
73550;SDS011;61816;53.582;10.096;2023-05-10T07:24:45;18.85;;;4.80;;
73550;SDS011;61816;53.582;10.096;2023-05-10T07:27:11;13.32;;;4.50;;
73550;SDS011;61816;53.582;10.096;2023-05-10T07:29:37;15.48;;;4.07;;
73550;SDS011;61816;53.582;10.096;2023-05-10T07:32:03;12.88;;;4.75;;
73550;SDS011;61816;53.582;10.096;2023-05-10T07:34:28;14.13;;;4.78;;
73550;SDS011;61816;53.582;10.096;2023-05-10T07:36:56;23.63;;;5.03;;
73550;SDS011;61816;53.582;10.096;2023-05-10T07:39:23;19.55;;;4.57;;
73550;SDS011;61816;53.582;10.096;2023-05-10T07:41:48;18.35;;;5.25;;
73550;SDS011;61816;53.582;10.096;2023-05-10T07:44:13;15.25;;;5.03;;
73550;SDS011;61816;53.582;10.096;2023-05-10T07:46:39;24.73;;;5.07;;
73550;SDS011;61816;53.582;10.096;2023-05-10T07:49:04;13.35;;;4.32;;
73550;SDS011;61816;53.582;10.096;2023-05-10T07:51:29;30.13;;;5.07;;
73550;SDS011;61816;53.582;10.096;2023-05-10T07:53:55;18.77;;;5.10;;
73550;SDS011;61816;53.582;10.096;2023-05-10T07:56:27;9.95;;;4.40;;
73550;SDS011;61816;53.582;10.096;2023-05-10T07:58:57;6.50;;;4.32;;
73550;SDS011;61816;53.582;10.096;2023-05-10T08:01:26;13.95;;;4.47;;
73550;SDS011;61816;53.582;10.096;2023-05-10T08:03:54;12.82;;;4.53;;
73550;SDS011;61816;53.582;10.096;2023-05-10T08:06:20;11.95;;;4.60;;
73550;SDS011;61816;53.582;10.096;2023-05-10T08:08:46;12.80;;;4.78;;
73550;SDS011;61816;53.582;10.096;2023-05-10T08:11:15;15.70;;;4.57;;
73550;SDS011;61816;53.582;10.096;2023-05-10T08:13:47;9.77;;;4.82;;
73550;SDS011;61816;53.582;10.096;2023-05-10T08:16:13;8.27;;;4.72;;
73550;SDS011;61816;53.582;10.096;2023-05-10T08:18:38;7.78;;;4.57;;
73550;SDS011;61816;53.582;10.096;2023-05-10T08:21:04;12.88;;;5.00;;
73550;SDS011;61816;53.582;10.096;2023-05-10T08:23:30;12.35;;;4.57;;
73550;SDS011;61816;53.582;10.096;2023-05-10T08:25:56;13.95;;;4.30;;
73550;SDS011;61816;53.582;10.096;2023-05-10T08:28:21;16.75;;;5.07;;
73550;SDS011;61816;53.582;10.096;2023-05-10T08:30:46;14.65;;;4.35;;
73550;SDS011;61816;53.582;10.096;2023-05-10T08:33:12;7.10;;;4.75;;
73550;SDS011;61816;53.582;10.096;2023-05-10T08:35:37;10.07;;;4.85;;
73550;SDS011;61816;53.582;10.096;2023-05-10T08:38:02;15.55;;;4.22;;
73550;SDS011;61816;53.582;10.096;2023-05-10T08:40:28;31.45;;;5.47;;
73550;SDS011;61816;53.582;10.096;2023-05-10T08:43:03;7.13;;;4.50;;
73550;SDS011;61816;53.582;10.096;2023-05-10T08:45:32;11.30;;;4.60;;
73550;SDS011;61816;53.582;10.096;2023-05-10T08:48:02;18.52;;;4.85;;
73550;SDS011;61816;53.582;10.096;2023-05-10T08:50:30;12.93;;;4.80;;
73550;SDS011;61816;53.582;10.096;2023-05-10T08:52:57;14.60;;;4.95;;
73550;SDS011;61816;53.582;10.096;2023-05-10T08:55:25;11.93;;;4.78;;
73550;SDS011;61816;53.582;10.096;2023-05-10T08:57:50;7.43;;;5.03;;
73550;SDS011;61816;53.582;10.096;2023-05-10T09:00:16;11.85;;;4.85;;
73550;SDS011;61816;53.582;10.096;2023-05-10T09:02:43;17.60;;;5.15;;
73550;SDS011;61816;53.582;10.096;2023-05-10T09:05:10;11.50;;;4.82;;
73550;SDS011;61816;53.582;10.096;2023-05-10T09:07:36;22.27;;;5.32;;
73550;SDS011;61816;53.582;10.096;2023-05-10T09:10:01;11.63;;;5.38;;
73550;SDS011;61816;53.582;10.096;2023-05-10T09:12:27;11.75;;;4.45;;
73550;SDS011;61816;53.582;10.096;2023-05-10T09:14:52;12.07;;;4.70;;
73550;SDS011;61816;53.582;10.096;2023-05-10T09:17:19;12.20;;;4.65;;
73550;SDS011;61816;53.582;10.096;2023-05-10T09:19:46;14.55;;;5.18;;
73550;SDS011;61816;53.582;10.096;2023-05-10T09:22:11;17.00;;;5.35;;
73550;SDS011;61816;53.582;10.096;2023-05-10T09:24:37;17.10;;;5.05;;
73550;SDS011;61816;53.582;10.096;2023-05-10T09:27:07;10.93;;;4.82;;
73550;SDS011;61816;53.582;10.096;2023-05-10T09:29:42;15.88;;;5.22;;
73550;SDS011;61816;53.582;10.096;2023-05-10T09:32:11;11.50;;;5.20;;
73550;SDS011;61816;53.582;10.096;2023-05-10T09:34:36;14.27;;;4.60;;
73550;SDS011;61816;53.582;10.096;2023-05-10T09:37:04;11.68;;;5.30;;
73550;SDS011;61816;53.582;10.096;2023-05-10T09:39:33;11.43;;;4.78;;
73550;SDS011;61816;53.582;10.096;2023-05-10T09:42:04;17.42;;;6.13;;
73550;SDS011;61816;53.582;10.096;2023-05-10T09:44:32;10.45;;;6.18;;
73550;SDS011;61816;53.582;10.096;2023-05-10T09:46:58;18.77;;;6.05;;
73550;SDS011;61816;53.582;10.096;2023-05-10T09:49:24;12.95;;;5.07;;
73550;SDS011;61816;53.582;10.096;2023-05-10T09:52:02;12.75;;;5.38;;
73550;SDS011;61816;53.582;10.096;2023-05-10T09:54:29;10.43;;;5.57;;
73550;SDS011;61816;53.582;10.096;2023-05-10T09:56:55;10.52;;;5.38;;
73550;SDS011;61816;53.582;10.096;2023-05-10T09:59:21;14.27;;;6.15;;
73550;SDS011;61816;53.582;10.096;2023-05-10T10:01:50;8.27;;;6.05;;
73550;SDS011;61816;53.582;10.096;2023-05-10T10:04:16;12.05;;;5.90;;
73550;SDS011;61816;53.582;10.096;2023-05-10T10:06:42;10.85;;;5.65;;
73550;SDS011;61816;53.582;10.096;2023-05-10T10:09:07;18.50;;;6.55;;
73550;SDS011;61816;53.582;10.096;2023-05-10T10:11:34;18.52;;;7.82;;
73550;SDS011;61816;53.582;10.096;2023-05-10T10:14:01;16.70;;;7.68;;
73550;SDS011;61816;53.582;10.096;2023-05-10T10:16:27;14.43;;;7.65;;
73550;SDS011;61816;53.582;10.096;2023-05-10T10:18:54;21.42;;;8.93;;
73550;SDS011;61816;53.582;10.096;2023-05-10T10:21:20;14.93;;;7.80;;
73550;SDS011;61816;53.582;10.096;2023-05-10T10:23:46;19.23;;;9.40;;
73550;SDS011;61816;53.582;10.096;2023-05-10T10:26:12;18.55;;;9.82;;
73550;SDS011;61816;53.582;10.096;2023-05-10T10:28:40;21.33;;;9.13;;
73550;SDS011;61816;53.582;10.096;2023-05-10T10:32:01;20.40;;;10.85;;
73550;SDS011;61816;53.582;10.096;2023-05-10T10:34:10;15.52;;;11.18;;
73550;SDS011;61816;53.582;10.096;2023-05-10T10:36:44;18.88;;;11.32;;
73550;SDS011;61816;53.582;10.096;2023-05-10T10:39:11;19.63;;;12.50;;
73550;SDS011;61816;53.582;10.096;2023-05-10T10:49:43;18.88;;;12.25;;
73550;SDS011;61816;53.582;10.096;2023-05-10T10:55:30;19.17;;;13.18;;
73550;SDS011;61816;53.582;10.096;2023-05-10T10:57:51;19.15;;;13.65;;
73550;SDS011;61816;53.582;10.096;2023-05-10T11:02:46;28.05;;;15.85;;
73550;SDS011;61816;53.582;10.096;2023-05-10T11:05:23;20.08;;;13.20;;
73550;SDS011;61816;53.582;10.096;2023-05-10T11:07:52;19.73;;;11.55;;
73550;SDS011;61816;53.582;10.096;2023-05-10T11:10:23;35.05;;;13.57;;
73550;SDS011;61816;53.582;10.096;2023-05-10T11:15:30;33.15;;;12.20;;
73550;SDS011;61816;53.582;10.096;2023-05-10T11:17:56;29.52;;;12.93;;
73550;SDS011;61816;53.582;10.096;2023-05-10T11:20:22;18.15;;;11.98;;
73550;SDS011;61816;53.582;10.096;2023-05-10T11:22:50;173.35;;;27.02;;
73550;SDS011;61816;53.582;10.096;2023-05-10T11:25:19;24.75;;;12.40;;
73550;SDS011;61816;53.582;10.096;2023-05-10T11:27:46;18.70;;;12.85;;
73550;SDS011;61816;53.582;10.096;2023-05-10T11:30:13;32.22;;;13.40;;
73550;SDS011;61816;53.582;10.096;2023-05-10T11:32:40;20.10;;;14.25;;
73550;SDS011;61816;53.582;10.096;2023-05-10T11:35:09;31.25;;;13.23;;
73550;SDS011;61816;53.582;10.096;2023-05-10T11:37:35;26.98;;;12.85;;
73550;SDS011;61816;53.582;10.096;2023-05-10T11:40:01;18.85;;;13.30;;
73550;SDS011;61816;53.582;10.096;2023-05-10T11:42:27;22.92;;;13.88;;
73550;SDS011;61816;53.582;10.096;2023-05-10T11:44:53;18.70;;;14.45;;
73550;SDS011;61816;53.582;10.096;2023-05-10T11:47:19;17.92;;;13.98;;
73550;SDS011;61816;53.582;10.096;2023-05-10T11:49:45;21.20;;;14.02;;
73550;SDS011;61816;53.582;10.096;2023-05-10T11:52:11;20.40;;;14.45;;
73550;SDS011;61816;53.582;10.096;2023-05-10T11:54:37;25.40;;;15.80;;
73550;SDS011;61816;53.582;10.096;2023-05-10T11:57:02;21.08;;;15.18;;
73550;SDS011;61816;53.582;10.096;2023-05-10T11:59:28;26.17;;;15.63;;
73550;SDS011;61816;53.582;10.096;2023-05-10T12:01:54;25.60;;;15.48;;
73550;SDS011;61816;53.582;10.096;2023-05-10T12:04:20;34.33;;;17.08;;
73550;SDS011;61816;53.582;10.096;2023-05-10T12:06:46;20.55;;;15.38;;
73550;SDS011;61816;53.582;10.096;2023-05-10T12:09:12;21.48;;;16.25;;
73550;SDS011;61816;53.582;10.096;2023-05-10T12:11:38;23.23;;;15.95;;
73550;SDS011;61816;53.582;10.096;2023-05-10T12:14:05;20.55;;;15.43;;
73550;SDS011;61816;53.582;10.096;2023-05-10T12:16:31;20.23;;;16.30;;
73550;SDS011;61816;53.582;10.096;2023-05-10T12:18:58;21.63;;;13.95;;
73550;SDS011;61816;53.582;10.096;2023-05-10T12:21:25;31.80;;;14.95;;
73550;SDS011;61816;53.582;10.096;2023-05-10T12:23:53;22.20;;;14.10;;
73550;SDS011;61816;53.582;10.096;2023-05-10T12:26:23;21.05;;;15.38;;
73550;SDS011;61816;53.582;10.096;2023-05-10T12:28:52;22.60;;;15.55;;
73550;SDS011;61816;53.582;10.096;2023-05-10T12:31:48;27.70;;;14.75;;
73550;SDS011;61816;53.582;10.096;2023-05-10T12:34:24;28.73;;;15.30;;
73550;SDS011;61816;53.582;10.096;2023-05-10T12:36:53;19.25;;;13.82;;
73550;SDS011;61816;53.582;10.096;2023-05-10T12:39:19;22.48;;;13.05;;
73550;SDS011;61816;53.582;10.096;2023-05-10T12:41:45;16.92;;;12.50;;
73550;SDS011;61816;53.582;10.096;2023-05-10T12:44:10;18.50;;;11.95;;
73550;SDS011;61816;53.582;10.096;2023-05-10T12:46:35;19.38;;;12.77;;
73550;SDS011;61816;53.582;10.096;2023-05-10T12:49:00;17.30;;;13.52;;
73550;SDS011;61816;53.582;10.096;2023-05-10T12:51:26;26.02;;;13.23;;
73550;SDS011;61816;53.582;10.096;2023-05-10T12:53:51;20.23;;;11.80;;
73550;SDS011;61816;53.582;10.096;2023-05-10T12:56:17;18.95;;;12.48;;
73550;SDS011;61816;53.582;10.096;2023-05-10T12:58:42;21.02;;;13.55;;
73550;SDS011;61816;53.582;10.096;2023-05-10T13:01:12;21.55;;;13.52;;
73550;SDS011;61816;53.582;10.096;2023-05-10T13:03:38;17.43;;;13.83;;
73550;SDS011;61816;53.582;10.096;2023-05-10T13:06:04;19.08;;;13.13;;
73550;SDS011;61816;53.582;10.096;2023-05-10T13:08:30;22.27;;;13.63;;
73550;SDS011;61816;53.582;10.096;2023-05-10T13:10:58;17.50;;;11.60;;
73550;SDS011;61816;53.582;10.096;2023-05-10T13:13:24;22.08;;;13.75;;
73550;SDS011;61816;53.582;10.096;2023-05-10T13:15:50;21.42;;;13.55;;
73550;SDS011;61816;53.582;10.096;2023-05-10T13:18:15;18.65;;;12.80;;
73550;SDS011;61816;53.582;10.096;2023-05-10T13:20:40;14.63;;;11.65;;
73550;SDS011;61816;53.582;10.096;2023-05-10T13:23:06;19.08;;;11.45;;
73550;SDS011;61816;53.582;10.096;2023-05-10T13:25:31;15.68;;;9.60;;
73550;SDS011;61816;53.582;10.096;2023-05-10T13:27:56;14.50;;;9.48;;
73550;SDS011;61816;53.582;10.096;2023-05-10T13:30:22;14.80;;;10.13;;
73550;SDS011;61816;53.582;10.096;2023-05-10T13:32:48;17.02;;;11.00;;
73550;SDS011;61816;53.582;10.096;2023-05-10T13:35:14;13.13;;;10.77;;
73550;SDS011;61816;53.582;10.096;2023-05-10T13:37:39;13.55;;;10.95;;
73550;SDS011;61816;53.582;10.096;2023-05-10T13:40:05;12.10;;;8.07;;
73550;SDS011;61816;53.582;10.096;2023-05-10T13:42:31;10.15;;;7.72;;
73550;SDS011;61816;53.582;10.096;2023-05-10T13:44:58;11.93;;;8.88;;
73550;SDS011;61816;53.582;10.096;2023-05-10T13:47:24;13.30;;;9.90;;
73550;SDS011;61816;53.582;10.096;2023-05-10T13:49:49;13.65;;;9.50;;
73550;SDS011;61816;53.582;10.096;2023-05-10T13:52:15;14.07;;;10.38;;
73550;SDS011;61816;53.582;10.096;2023-05-10T13:54:40;14.25;;;8.45;;
73550;SDS011;61816;53.582;10.096;2023-05-10T13:57:05;10.93;;;8.30;;
73550;SDS011;61816;53.582;10.096;2023-05-10T13:59:31;9.07;;;7.43;;
73550;SDS011;61816;53.582;10.096;2023-05-10T14:01:57;9.07;;;7.47;;
73550;SDS011;61816;53.582;10.096;2023-05-10T14:04:23;9.68;;;7.13;;
73550;SDS011;61816;53.582;10.096;2023-05-10T14:06:49;12.02;;;6.95;;
73550;SDS011;61816;53.582;10.096;2023-05-10T14:09:14;9.25;;;7.72;;
73550;SDS011;61816;53.582;10.096;2023-05-10T14:11:39;9.55;;;7.15;;
73550;SDS011;61816;53.582;10.096;2023-05-10T14:14:08;8.88;;;6.07;;
73550;SDS011;61816;53.582;10.096;2023-05-10T14:16:34;8.90;;;6.95;;
73550;SDS011;61816;53.582;10.096;2023-05-10T14:18:59;8.90;;;6.53;;
73550;SDS011;61816;53.582;10.096;2023-05-10T14:21:25;7.80;;;5.97;;
73550;SDS011;61816;53.582;10.096;2023-05-10T14:23:50;8.27;;;5.78;;
73550;SDS011;61816;53.582;10.096;2023-05-10T14:26:15;9.88;;;5.13;;
73550;SDS011;61816;53.582;10.096;2023-05-10T14:28:41;11.07;;;5.88;;
73550;SDS011;61816;53.582;10.096;2023-05-10T14:31:06;9.80;;;5.50;;
73550;SDS011;61816;53.582;10.096;2023-05-10T14:33:32;6.63;;;5.05;;
73550;SDS011;61816;53.582;10.096;2023-05-10T14:35:57;6.57;;;5.28;;
73550;SDS011;61816;53.582;10.096;2023-05-10T14:38:22;8.13;;;5.72;;
73550;SDS011;61816;53.582;10.096;2023-05-10T14:40:48;8.63;;;5.30;;
73550;SDS011;61816;53.582;10.096;2023-05-10T14:43:14;10.75;;;5.82;;
73550;SDS011;61816;53.582;10.096;2023-05-10T14:45:39;8.20;;;5.40;;
73550;SDS011;61816;53.582;10.096;2023-05-10T14:48:05;8.55;;;5.55;;
73550;SDS011;61816;53.582;10.096;2023-05-10T14:50:31;8.65;;;6.25;;
73550;SDS011;61816;53.582;10.096;2023-05-10T14:52:57;9.23;;;5.55;;
73550;SDS011;61816;53.582;10.096;2023-05-10T14:55:24;7.15;;;5.60;;
73550;SDS011;61816;53.582;10.096;2023-05-10T14:57:49;7.60;;;5.78;;
73550;SDS011;61816;53.582;10.096;2023-05-10T15:00:15;8.90;;;5.55;;
73550;SDS011;61816;53.582;10.096;2023-05-10T15:02:41;9.68;;;5.80;;
73550;SDS011;61816;53.582;10.096;2023-05-10T15:05:07;7.20;;;6.20;;